createdAt,value
2018-04-18T00:01:20.337Z,13.30
2018-04-18T00:03:47.876Z,13.30
2018-04-18T00:06:15.401Z,13.40
2018-04-18T00:08:43.799Z,13.40
2018-04-18T00:11:11.404Z,13.40
2018-04-18T00:13:39.759Z,13.30
2018-04-18T00:16:07.444Z,13.30
2018-04-18T00:18:36.113Z,13.30
2018-04-18T00:21:03.687Z,13.30
2018-04-18T00:23:31.219Z,13.20
2018-04-18T00:25:58.826Z,13.30
2018-04-18T00:28:27.197Z,13.10
2018-04-18T00:30:54.766Z,13.10
2018-04-18T00:33:22.405Z,13.00
2018-04-18T00:35:49.930Z,13.00
2018-04-18T00:38:17.444Z,12.90
2018-04-18T00:40:45.705Z,12.90
2018-04-18T00:43:13.249Z,12.90
2018-04-18T00:45:40.768Z,13.00
2018-04-18T00:48:08.535Z,12.90
2018-04-18T00:50:36.189Z,12.90
2018-04-18T00:53:03.682Z,12.80
2018-04-18T00:55:31.202Z,12.80
2018-04-18T00:57:58.805Z,12.70
2018-04-18T01:00:26.296Z,12.80
2018-04-18T01:02:54.652Z,12.70
2018-04-18T01:05:22.203Z,12.70
2018-04-18T01:07:49.752Z,12.70
2018-04-18T01:10:17.298Z,12.70
2018-04-18T01:12:44.870Z,12.70
2018-04-18T01:15:12.449Z,12.60
2018-04-18T01:17:40.062Z,12.50
2018-04-18T01:20:07.768Z,12.40
2018-04-18T01:22:35.370Z,12.50
2018-04-18T01:25:02.903Z,12.40
2018-04-18T01:27:31.342Z,12.30
2018-04-18T01:29:58.851Z,12.30
2018-04-18T01:32:27.222Z,12.10
2018-04-18T01:34:55.522Z,12.10
2018-04-18T01:37:23.195Z,12.00
2018-04-18T01:39:50.831Z,12.00
2018-04-18T01:42:19.149Z,11.90
2018-04-18T01:44:47.091Z,11.90
2018-04-18T01:47:14.720Z,11.90
2018-04-18T01:49:42.562Z,11.80
2018-04-18T01:52:11.330Z,11.60
2018-04-18T01:54:38.868Z,11.60
2018-04-18T01:57:06.422Z,11.60
2018-04-18T01:59:34.083Z,11.60
2018-04-18T02:02:01.764Z,11.70
2018-04-18T02:04:29.322Z,11.70
2018-04-18T02:06:56.953Z,11.50
2018-04-18T02:09:24.536Z,11.50
2018-04-18T02:11:52.064Z,11.50
2018-04-18T02:14:19.563Z,11.50
2018-04-18T02:16:47.075Z,11.40
2018-04-18T02:19:14.884Z,11.40
2018-04-18T02:21:48.662Z,11.30
2018-04-18T02:24:16.175Z,11.30
2018-04-18T02:26:43.842Z,11.20
2018-04-18T02:29:11.494Z,11.20
2018-04-18T02:31:39.074Z,11.20
2018-04-18T02:34:09.744Z,11.20
2018-04-18T02:36:37.287Z,11.10
2018-04-18T02:39:04.835Z,11.20
2018-04-18T02:41:32.408Z,11.10
2018-04-18T02:44:00.002Z,11.00
2018-04-18T02:46:27.537Z,11.00
2018-04-18T02:48:55.077Z,11.00
2018-04-18T02:51:22.751Z,11.00
2018-04-18T02:53:50.439Z,10.90
2018-04-18T02:56:24.352Z,10.80
2018-04-18T02:58:51.884Z,10.90
2018-04-18T03:01:19.419Z,11.00
2018-04-18T03:03:46.920Z,11.00
2018-04-18T03:06:14.461Z,10.90
2018-04-18T03:08:42.187Z,10.80
2018-04-18T03:11:10.545Z,10.70
2018-04-18T03:13:38.990Z,10.60
2018-04-18T03:16:07.308Z,10.70
2018-04-18T03:18:35.618Z,10.70
2018-04-18T03:21:03.136Z,10.70
2018-04-18T03:23:30.630Z,10.70
2018-04-18T03:25:58.221Z,10.60
2018-04-18T03:28:25.769Z,10.50
2018-04-18T03:30:53.362Z,10.60
2018-04-18T03:33:20.882Z,10.40
2018-04-18T03:35:48.507Z,10.40
2018-04-18T03:38:16.034Z,10.40
2018-04-18T03:40:47.395Z,10.40
2018-04-18T03:43:14.929Z,10.40
2018-04-18T03:45:45.131Z,10.40
2018-04-18T03:48:12.683Z,10.40
2018-04-18T03:50:40.270Z,10.40
2018-04-18T03:53:08.001Z,10.40
2018-04-18T03:55:35.508Z,10.40
2018-04-18T03:58:03.803Z,10.30
2018-04-18T04:00:31.326Z,10.30
2018-04-18T04:02:58.888Z,10.30
2018-04-18T04:05:26.581Z,10.30
2018-04-18T04:07:54.108Z,10.30
2018-04-18T04:10:21.753Z,10.30
2018-04-18T04:12:49.281Z,10.30
2018-04-18T04:15:16.784Z,10.20
2018-04-18T04:17:56.094Z,10.20
2018-04-18T04:20:35.347Z,10.20
2018-04-18T04:23:14.798Z,10.10
2018-04-18T04:25:42.349Z,10.10
2018-04-18T04:28:09.901Z,10.10
2018-04-18T04:30:39.029Z,10.00
2018-04-18T04:33:06.862Z,10.00
2018-04-18T04:35:35.352Z,10.10
2018-04-18T04:38:02.889Z,10.00
2018-04-18T04:40:30.828Z,10.00
2018-04-18T04:42:58.345Z,10.10
2018-04-18T04:45:25.957Z,10.20
2018-04-18T04:47:53.542Z,10.20
2018-04-18T04:50:21.033Z,10.10
2018-04-18T04:52:48.639Z,10.10
2018-04-18T04:55:16.230Z,10.20
2018-04-18T04:57:44.682Z,10.20
2018-04-18T05:00:12.191Z,10.20
2018-04-18T05:02:40.676Z,10.40
2018-04-18T05:05:08.196Z,10.30
2018-04-18T05:07:35.873Z,10.40
2018-04-18T05:10:04.498Z,10.60
2018-04-18T05:12:32.055Z,10.60
2018-04-18T05:14:59.616Z,10.70
2018-04-18T05:17:27.156Z,10.80
2018-04-18T05:19:54.744Z,10.90
2018-04-18T05:22:34.277Z,10.90
2018-04-18T05:25:02.122Z,11.00
2018-04-18T05:27:30.108Z,11.00
2018-04-18T05:29:57.708Z,11.10
2018-04-18T05:32:28.364Z,11.10
2018-04-18T05:34:55.881Z,11.30
2018-04-18T05:37:24.836Z,11.60
2018-04-18T05:39:52.965Z,11.50
2018-04-18T05:42:20.541Z,11.60
2018-04-18T05:44:48.974Z,11.80
2018-04-18T05:47:16.491Z,11.70
2018-04-18T05:49:44.826Z,11.90
2018-04-18T05:52:12.541Z,11.90
2018-04-18T05:54:40.044Z,12.00
2018-04-18T05:57:07.638Z,12.00
2018-04-18T05:59:35.942Z,12.10
2018-04-18T06:02:03.511Z,12.10
2018-04-18T06:04:31.057Z,12.20
2018-04-18T06:06:58.700Z,12.30
2018-04-18T06:09:26.976Z,12.60
2018-04-18T06:11:55.253Z,12.90
2018-04-18T06:14:23.040Z,12.90
2018-04-18T06:16:50.679Z,13.10
2018-04-18T06:19:19.025Z,13.50
2018-04-18T06:21:46.550Z,13.50
2018-04-18T06:24:14.068Z,13.70
2018-04-18T06:26:48.240Z,14.20
2018-04-18T06:29:15.761Z,14.20
2018-04-18T06:31:43.279Z,14.60
2018-04-18T06:34:10.758Z,14.90
2018-04-18T06:36:39.021Z,15.80
2018-04-18T06:39:06.600Z,15.80
2018-04-18T06:41:34.869Z,16.60
2018-04-18T06:44:02.461Z,16.60
2018-04-18T06:46:29.981Z,16.90
2018-04-18T06:48:58.250Z,17.60
2018-04-18T06:51:25.811Z,17.50
2018-04-18T06:53:54.109Z,17.80
2018-04-18T06:56:21.669Z,17.80
2018-04-18T06:58:49.155Z,18.10
2018-04-18T07:01:16.702Z,18.20
2018-04-18T07:03:44.280Z,18.30
2018-04-18T07:06:11.789Z,18.40
2018-04-18T07:08:40.119Z,18.50
2018-04-18T07:11:07.636Z,18.50
2018-04-18T07:13:35.144Z,18.80
2018-04-18T07:16:02.679Z,18.90
2018-04-18T07:18:30.176Z,18.90
2018-04-18T07:20:57.758Z,19.00
2018-04-18T07:23:27.960Z,18.50
2018-04-18T07:25:55.614Z,18.50
2018-04-18T07:28:23.128Z,18.50
2018-04-18T07:30:50.626Z,18.50
2018-04-18T07:33:18.218Z,18.30
2018-04-18T07:35:46.498Z,18.00
2018-04-18T07:38:14.013Z,18.00
2018-04-18T07:40:41.578Z,18.00
2018-04-18T07:43:09.158Z,17.80
2018-04-18T07:45:37.417Z,17.80
2018-04-18T07:48:04.924Z,17.70
2018-04-18T07:50:32.614Z,17.80
2018-04-18T07:53:00.128Z,17.90
2018-04-18T07:55:28.512Z,18.20
2018-04-18T07:57:56.015Z,18.20
2018-04-18T08:00:23.553Z,18.30
2018-04-18T08:02:51.094Z,18.30
2018-04-18T08:05:18.575Z,18.40
2018-04-18T08:07:46.150Z,18.50
2018-04-18T08:10:13.679Z,18.60
2018-04-18T08:12:41.318Z,18.70
2018-04-18T08:15:08.917Z,18.90
2018-04-18T08:17:36.576Z,19.00
2018-04-18T08:20:04.215Z,19.10
2018-04-18T08:22:31.807Z,19.20
2018-04-18T08:24:59.314Z,19.20
2018-04-18T08:27:26.889Z,19.30
2018-04-18T08:29:54.472Z,19.40
2018-04-18T08:32:22.081Z,19.50
2018-04-18T08:34:49.846Z,19.70
2018-04-18T08:37:17.398Z,19.80
2018-04-18T08:39:45.255Z,19.70
2018-04-18T08:42:12.773Z,19.80
2018-04-18T08:44:40.437Z,20.00
2018-04-18T08:47:08.208Z,20.10
2018-04-18T08:49:35.797Z,20.30
2018-04-18T08:52:03.526Z,20.40
2018-04-18T08:54:31.248Z,20.60
2018-04-18T08:56:58.952Z,20.70
2018-04-18T08:59:26.478Z,20.80
2018-04-18T09:01:54.046Z,21.00
2018-04-18T09:04:21.604Z,21.10
2018-04-18T09:06:49.216Z,21.30
2018-04-18T09:09:17.664Z,21.60
2018-04-18T09:11:45.399Z,21.60
2018-04-18T09:14:12.984Z,21.60
2018-04-18T09:16:40.847Z,21.70
2018-04-18T09:19:08.394Z,21.80
2018-04-18T09:21:35.920Z,21.90
2018-04-18T09:24:03.830Z,22.10
2018-04-18T09:26:31.375Z,22.20
2018-04-18T09:28:59.067Z,22.30
2018-04-18T09:31:26.914Z,22.30
2018-04-18T09:33:54.432Z,22.30
2018-04-18T09:36:22.732Z,22.50
2018-04-18T09:38:51.484Z,22.50
2018-04-18T09:41:19.117Z,22.60
2018-04-18T09:43:47.597Z,22.60
2018-04-18T09:46:15.165Z,22.60
2018-04-18T09:48:42.728Z,22.60
2018-04-18T09:51:10.325Z,22.70
2018-04-18T09:53:38.050Z,22.80
2018-04-18T09:56:05.565Z,22.90
2018-04-18T09:58:33.143Z,23.00
2018-04-18T10:01:00.656Z,23.10
2018-04-18T10:03:28.277Z,23.20
2018-04-18T10:05:55.906Z,23.30
2018-04-18T10:08:23.636Z,23.40
2018-04-18T10:10:51.145Z,23.50
2018-04-18T10:13:18.757Z,23.40
2018-04-18T10:15:46.603Z,23.40
2018-04-18T10:18:15.354Z,23.30
2018-04-18T10:20:42.847Z,23.30
2018-04-18T10:23:10.397Z,23.30
2018-04-18T10:25:38.767Z,23.60
2018-04-18T10:28:06.359Z,23.50
2018-04-18T10:30:33.891Z,23.60
2018-04-18T10:33:01.482Z,23.80
2018-04-18T10:35:29.089Z,23.80
2018-04-18T10:37:56.772Z,23.80
2018-04-18T10:40:24.473Z,23.80
2018-04-18T10:42:51.986Z,23.90
2018-04-18T10:45:20.347Z,24.10
2018-04-18T10:47:47.963Z,24.10
2018-04-18T10:50:15.475Z,24.10
2018-04-18T10:52:44.009Z,24.00
2018-04-18T10:55:11.648Z,24.00
2018-04-18T10:57:39.935Z,24.20
2018-04-18T11:00:07.427Z,24.10
2018-04-18T11:02:34.971Z,24.20
2018-04-18T11:05:02.731Z,24.30
2018-04-18T11:07:30.340Z,24.20
2018-04-18T11:09:58.609Z,24.20
2018-04-18T11:12:26.187Z,24.20
2018-04-18T11:14:53.801Z,24.30
2018-04-18T11:17:21.285Z,24.40
2018-04-18T11:19:48.971Z,24.60
2018-04-18T11:22:16.532Z,24.70
2018-04-18T11:24:44.332Z,24.80
2018-04-18T11:27:12.145Z,24.90
2018-04-18T11:29:39.710Z,25.00
2018-04-18T11:32:07.373Z,25.00
2018-04-18T11:34:35.707Z,25.20
2018-04-18T11:37:03.705Z,25.20
2018-04-18T11:39:31.291Z,25.30
2018-04-18T11:41:59.551Z,25.40
2018-04-18T11:44:27.949Z,25.50
2018-04-18T11:46:55.592Z,25.50
2018-04-18T11:49:23.114Z,25.60
2018-04-18T11:51:50.656Z,25.60
2018-04-18T11:54:18.312Z,25.40
2018-04-18T11:56:45.819Z,25.50
2018-04-18T11:59:13.589Z,25.60
2018-04-18T12:01:41.182Z,25.60
2018-04-18T12:04:09.179Z,25.80
2018-04-18T12:06:36.830Z,25.90
2018-04-18T12:09:04.641Z,25.90
2018-04-18T12:11:33.074Z,26.00
2018-04-18T12:14:00.907Z,26.00
2018-04-18T12:16:28.694Z,25.90
2018-04-18T12:18:56.419Z,26.10
2018-04-18T12:21:24.139Z,26.10
2018-04-18T12:23:51.758Z,26.20
2018-04-18T12:26:19.355Z,26.20
2018-04-18T12:28:47.052Z,26.10
2018-04-18T12:31:14.608Z,26.10
2018-04-18T12:33:42.221Z,26.20
2018-04-18T12:36:09.951Z,26.30
2018-04-18T12:38:37.490Z,26.40
2018-04-18T12:41:05.169Z,26.40
2018-04-18T12:43:33.650Z,26.40
2018-04-18T12:46:01.304Z,26.40
2018-04-18T12:48:28.852Z,26.40
2018-04-18T12:50:56.467Z,26.40
2018-04-18T12:53:24.013Z,26.40
2018-04-18T12:55:51.605Z,26.20
2018-04-18T12:58:19.152Z,26.30
2018-04-18T13:00:46.763Z,26.40
2018-04-18T13:03:14.357Z,26.50
2018-04-18T13:05:42.686Z,26.50
2018-04-18T13:08:10.343Z,26.50
2018-04-18T13:10:38.048Z,26.40
2018-04-18T13:13:05.605Z,26.40
2018-04-18T13:15:33.175Z,26.40
2018-04-18T13:18:00.799Z,26.60
2018-04-18T13:20:29.102Z,26.70
2018-04-18T13:22:56.665Z,26.60
2018-04-18T13:25:24.291Z,26.70
2018-04-18T13:27:51.761Z,26.70
2018-04-18T13:30:19.443Z,26.40
2018-04-18T13:32:47.080Z,26.60
2018-04-18T13:35:15.681Z,26.90
2018-04-18T13:37:44.200Z,26.80
2018-04-18T13:40:11.753Z,26.80
2018-04-18T13:42:40.267Z,26.90
2018-04-18T13:45:07.894Z,26.90
2018-04-18T13:47:35.413Z,27.20
2018-04-18T13:50:02.895Z,27.30
2018-04-18T13:52:30.638Z,27.30
2018-04-18T13:54:58.206Z,27.30
2018-04-18T13:57:25.810Z,27.10
2018-04-18T13:59:53.315Z,27.20
2018-04-18T14:02:20.835Z,27.00
2018-04-18T14:04:48.318Z,26.70
2018-04-18T14:07:16.562Z,26.70
2018-04-18T14:09:44.100Z,26.70
2018-04-18T14:12:11.617Z,26.90
2018-04-18T14:14:39.110Z,26.80
2018-04-18T14:17:06.652Z,26.60
2018-04-18T14:19:34.153Z,26.70
2018-04-18T14:22:01.654Z,26.80
2018-04-18T14:24:29.202Z,27.00
2018-04-18T14:26:56.704Z,27.00
2018-04-18T14:29:24.225Z,27.10
2018-04-18T22:17:27.453Z,16.60
2018-04-18T22:19:55.018Z,17.00
2018-04-18T22:22:23.350Z,17.60
2018-04-18T22:24:51.389Z,17.50
2018-04-18T22:27:18.900Z,17.70
2018-04-18T22:29:46.403Z,17.70
2018-04-18T22:32:13.924Z,17.70
2018-04-18T22:34:41.436Z,17.70
2018-04-18T22:37:09.045Z,17.60
2018-04-18T22:39:36.576Z,17.50
2018-04-18T22:42:04.113Z,17.40
2018-04-18T22:44:31.609Z,17.50
2018-04-18T22:46:59.185Z,17.40
2018-04-18T22:49:27.519Z,17.40
2018-04-18T22:51:55.900Z,17.40
2018-04-18T22:54:23.414Z,17.30
2018-04-18T22:56:51.752Z,17.30
2018-04-18T22:59:19.242Z,17.20
2018-04-18T23:01:47.523Z,17.20
2018-04-18T23:04:15.799Z,17.10
2018-04-18T23:06:43.374Z,17.00
2018-04-18T23:09:10.882Z,17.00
2018-04-18T23:11:38.617Z,17.00
2018-04-18T23:14:06.176Z,16.90
2018-04-18T23:16:33.693Z,16.80
2018-04-18T23:19:01.962Z,16.60
2018-04-18T23:21:29.511Z,16.50
2018-04-18T23:24:00.859Z,16.30
2018-04-18T23:26:28.374Z,16.20
2018-04-18T23:28:55.889Z,16.20
2018-04-18T23:31:23.380Z,16.00
2018-04-18T23:33:50.971Z,15.90
2018-04-18T23:36:18.537Z,15.80
2018-04-18T23:38:46.023Z,15.70
2018-04-18T23:41:14.284Z,15.40
2018-04-18T23:43:41.876Z,15.40
2018-04-18T23:46:09.530Z,15.30
2018-04-18T23:48:37.017Z,15.30
2018-04-18T23:51:04.567Z,15.00
2018-04-18T23:53:32.075Z,14.90
2018-04-18T23:55:59.615Z,14.70
2018-04-18T23:58:27.108Z,14.60
